Time;durP1;ratioP1;P1;durP2;ratioP2;P2;SDS_P1;SDS_P2;PMS_P1;PMS_P2;Temp;Humidity;BMP_temperature;BMP_pressure;BME280_temperature;BME280_humidity;BME280_pressure;Samples;Min_cycle;Max_cycle;Signal;HPM_P1;HPM_P2
2021/08/22 00:01:15;;;;;;;2.35;0.90;;;24.20;57.80;;;;;;6315557;28;20531;-70
2021/08/22 00:04:16;;;;;;;1.10;0.90;;;24.20;57.80;;;;;;6322771;28;20032;-70
2021/08/22 00:07:16;;;;;;;1.00;0.70;;;24.20;57.80;;;;;;6315492;28;20485;-70
2021/08/22 00:10:17;;;;;;;2.47;1.00;;;24.20;57.80;;;;;;6335947;28;20030;-68
2021/08/22 00:13:19;;;;;;;1.67;0.90;;;24.20;57.80;;;;;;6339766;28;20110;-70
2021/08/22 00:16:19;;;;;;;1.98;1.10;;;24.20;57.70;;;;;;6316582;28;20024;-68
2021/08/22 00:19:20;;;;;;;1.02;0.82;;;24.20;57.80;;;;;;6316145;28;20032;-70
2021/08/22 00:22:20;;;;;;;0.90;0.68;;;24.20;57.80;;;;;;6314551;28;20075;-70
2021/08/22 00:25:21;;;;;;;0.80;0.70;;;24.20;57.70;;;;;;6334990;28;20047;-70
2021/08/22 00:28:22;;;;;;;1.60;0.90;;;24.20;57.70;;;;;;6339411;28;20419;-69
2021/08/22 00:31:22;;;;;;;1.33;0.90;;;24.30;57.80;;;;;;6315099;28;20042;-69
2021/08/22 00:34:23;;;;;;;1.60;0.77;;;24.30;57.90;;;;;;6331960;28;20062;-69
2021/08/22 00:37:28;;;;;;;1.50;0.80;;;24.30;57.90;;;;;;6339961;28;20030;-69
2021/08/22 00:40:28;;;;;;;1.08;0.90;;;24.20;57.70;;;;;;6339920;28;20385;-68
2021/08/22 00:43:29;;;;;;;1.20;0.90;;;24.30;57.90;;;;;;6339775;28;20031;-68
2021/08/22 00:46:31;;;;;;;0.90;0.70;;;24.20;57.80;;;;;;6339499;28;20038;-70
2021/08/22 00:49:32;;;;;;;1.13;0.80;;;24.20;57.80;;;;;;6341069;28;20042;-69
2021/08/22 00:52:34;;;;;;;1.10;0.85;;;24.20;57.80;;;;;;6326060;28;20020;-69
2021/08/22 00:55:34;;;;;;;0.88;0.70;;;24.20;57.80;;;;;;6329730;28;20031;-69
2021/08/22 00:58:35;;;;;;;1.50;0.80;;;24.20;57.80;;;;;;6340323;28;20037;-68
2021/08/22 01:01:38;;;;;;;0.73;0.73;;;24.30;57.90;;;;;;6314639;28;20031;-70
2021/08/22 01:04:47;;;;;;;1.15;0.68;;;24.30;57.80;;;;;;6315389;28;20181;-70
2021/08/22 01:07:57;;;;;;;1.63;1.00;;;24.20;57.70;;;;;;6313877;28;20072;-70
2021/08/22 01:11:04;;;;;;;1.63;0.90;;;24.30;57.80;;;;;;6331498;28;20015;-70
2021/08/22 01:14:10;;;;;;;0.60;0.60;;;24.20;57.70;;;;;;6332907;28;20016;-69
2021/08/22 01:17:12;;;;;;;1.52;0.75;;;24.20;57.70;;;;;;6289515;28;20120;-70
2021/08/22 01:20:12;;;;;;;1.38;0.80;;;24.20;57.70;;;;;;6321764;28;20023;-70
2021/08/22 01:23:14;;;;;;;1.00;0.80;;;24.20;57.70;;;;;;6338974;28;20047;-70
2021/08/22 01:26:18;;;;;;;0.80;0.60;;;24.20;57.80;;;;;;6326170;28;20021;-69
2021/08/22 01:29:21;;;;;;;1.48;0.93;;;24.20;57.80;;;;;;6315020;28;20142;-69
2021/08/22 01:32:22;;;;;;;1.38;0.80;;;24.20;57.70;;;;;;6313892;28;20077;-70
2021/08/22 01:35:24;;;;;;;1.25;0.70;;;24.20;57.70;;;;;;6320630;28;20783;-70
2021/08/22 01:38:25;;;;;;;1.13;0.90;;;24.20;57.80;;;;;;6338959;28;20027;-69
2021/08/22 01:41:26;;;;;;;1.88;1.00;;;24.20;57.70;;;;;;6340323;28;20469;-68
2021/08/22 01:44:28;;;;;;;1.55;0.80;;;24.20;57.70;;;;;;6339393;28;20015;-69
2021/08/22 01:47:29;;;;;;;0.75;0.60;;;24.20;57.80;;;;;;6338358;28;20431;-69
2021/08/22 01:50:30;;;;;;;1.15;0.85;;;24.30;57.80;;;;;;6339265;28;20152;-69
2021/08/22 01:53:31;;;;;;;1.00;0.80;;;24.20;57.70;;;;;;6340558;28;20151;-69
2021/08/22 01:56:32;;;;;;;1.10;1.00;;;24.20;57.70;;;;;;6338387;28;20043;-69
2021/08/22 01:59:36;;;;;;;1.15;0.88;;;24.20;57.70;;;;;;6338518;28;20125;-69
2021/08/22 02:02:40;;;;;;;1.42;0.88;;;24.20;57.70;;;;;;6339809;28;20028;-70
2021/08/22 02:05:40;;;;;;;1.35;0.90;;;24.20;57.70;;;;;;6323289;28;20352;-69
2021/08/22 02:08:43;;;;;;;0.90;0.70;;;24.20;57.70;;;;;;6342794;28;20174;-70
2021/08/22 02:11:52;;;;;;;1.17;0.70;;;24.20;57.70;;;;;;6344510;28;20066;-70
2021/08/22 02:14:56;;;;;;;0.90;0.80;;;24.20;57.70;;;;;;6328166;28;20040;-70
2021/08/22 02:18:04;;;;;;;2.70;0.97;;;24.20;57.70;;;;;;6341980;28;20027;-70
2021/08/22 02:21:05;;;;;;;1.77;0.80;;;24.20;57.70;;;;;;6332665;27;20024;-67
2021/08/22 02:24:06;;;;;;;0.75;0.70;;;24.20;57.70;;;;;;6322808;28;20036;-70
2021/08/22 02:27:06;;;;;;;1.55;0.82;;;24.20;57.70;;;;;;6344601;28;20026;-70
2021/08/22 02:30:08;;;;;;;1.98;1.05;;;24.20;57.70;;;;;;6342793;28;20030;-67
2021/08/22 02:33:09;;;;;;;1.27;0.80;;;24.30;57.80;;;;;;6343010;28;20032;-70
2021/08/22 02:36:10;;;;;;;1.38;0.90;;;24.20;57.70;;;;;;6344730;28;20024;-67
2021/08/22 02:39:10;;;;;;;0.95;0.70;;;24.20;57.70;;;;;;6345209;28;20314;-66
2021/08/22 02:42:11;;;;;;;0.88;0.77;;;24.20;57.60;;;;;;6332160;28;20082;-66
2021/08/22 02:45:11;;;;;;;0.88;0.75;;;24.20;57.70;;;;;;6319833;28;20031;-66
2021/08/22 02:48:12;;;;;;;1.20;0.80;;;24.20;57.70;;;;;;6319976;28;20089;-66
2021/08/22 02:51:13;;;;;;;0.95;0.65;;;24.20;57.70;;;;;;6318473;28;20039;-65
2021/08/22 02:54:14;;;;;;;0.85;0.70;;;24.20;57.70;;;;;;6318022;28;20389;-69
2021/08/22 02:57:18;;;;;;;0.82;0.75;;;24.20;57.70;;;;;;6328364;28;20047;-67
2021/08/22 03:00:19;;;;;;;1.50;0.70;;;24.20;57.70;;;;;;6342199;28;20023;-67
2021/08/22 03:03:21;;;;;;;0.82;0.60;;;24.30;57.80;;;;;;6341374;28;20031;-68
2021/08/22 03:06:21;;;;;;;1.17;0.70;;;24.20;57.70;;;;;;6318097;28;20027;-68
2021/08/22 03:09:22;;;;;;;1.40;0.70;;;24.30;57.80;;;;;;6343181;28;20023;-68
2021/08/22 03:12:22;;;;;;;5.65;1.02;;;24.20;57.80;;;;;;6343194;28;20084;-67
2021/08/22 03:15:23;;;;;;;1.30;0.88;;;24.20;57.70;;;;;;6324016;28;20030;-68
2021/08/22 03:18:24;;;;;;;1.17;0.77;;;24.20;57.70;;;;;;6333390;28;20039;-67
2021/08/22 03:21:24;;;;;;;1.40;0.90;;;24.30;57.70;;;;;;6342120;28;20216;-68
2021/08/22 03:24:25;;;;;;;1.05;0.85;;;24.30;57.70;;;;;;6321405;28;20016;-67
2021/08/22 03:27:25;;;;;;;2.72;0.80;;;24.20;57.60;;;;;;6342497;28;20064;-67
2021/08/22 03:30:26;;;;;;;0.82;0.70;;;24.20;57.70;;;;;;6343139;28;20076;-67
2021/08/22 03:33:27;;;;;;;1.00;0.70;;;24.20;57.60;;;;;;6329099;28;20423;-68
2021/08/22 03:36:27;;;;;;;0.80;0.70;;;24.20;57.70;;;;;;6317989;28;20032;-67
2021/08/22 03:39:28;;;;;;;1.65;0.80;;;24.20;57.60;;;;;;6325366;28;20024;-67
2021/08/22 03:42:28;;;;;;;0.70;0.70;;;24.20;57.70;;;;;;6321294;28;20103;-67
2021/08/22 03:45:29;;;;;;;1.02;0.65;;;24.20;57.70;;;;;;6341147;28;20046;-67
2021/08/22 03:48:29;;;;;;;0.80;0.80;;;24.20;58.40;;;;;;6342377;28;20063;-67
2021/08/22 03:51:30;;;;;;;1.30;0.88;;;24.20;57.70;;;;;;6342271;28;20023;-67
2021/08/22 03:54:30;;;;;;;1.20;0.73;;;24.20;57.70;;;;;;6321511;28;20047;-67
2021/08/22 03:57:31;;;;;;;0.70;0.70;;;24.20;57.70;;;;;;6317345;28;20048;-68
2021/08/22 04:00:38;;;;;;;1.67;0.90;;;24.20;57.70;;;;;;6342095;28;20028;-67
2021/08/22 04:03:40;;;;;;;1.40;0.90;;;24.20;57.70;;;;;;6331087;28;20103;-68
2021/08/22 04:06:47;;;;;;;0.88;0.60;;;24.20;57.70;;;;;;6316601;28;20031;-68
2021/08/22 04:09:48;;;;;;;1.08;0.70;;;24.20;57.60;;;;;;6316401;28;20027;-68
2021/08/22 04:12:48;;;;;;;1.38;0.73;;;24.20;57.60;;;;;;6316425;28;20028;-68
2021/08/22 04:15:49;;;;;;;1.45;0.80;;;24.20;57.60;;;;;;6317072;28;20120;-68
2021/08/22 04:18:50;;;;;;;0.60;0.60;;;24.20;57.60;;;;;;6321926;28;20034;-67
2021/08/22 04:21:51;;;;;;;1.27;0.85;;;24.20;57.60;;;;;;6341904;28;20046;-68
2021/08/22 04:24:51;;;;;;;1.58;0.90;;;24.20;57.60;;;;;;6324623;28;20315;-68
2021/08/22 04:27:53;;;;;;;1.63;0.70;;;24.20;57.70;;;;;;6316093;28;20020;-68
2021/08/22 04:30:53;;;;;;;0.82;0.70;;;24.30;57.80;;;;;;6339170;28;20031;-68
2021/08/22 04:33:54;;;;;;;1.48;0.82;;;24.20;57.70;;;;;;6334142;28;20020;-68
2021/08/22 04:36:54;;;;;;;0.70;0.70;;;24.20;57.70;;;;;;6316234;28;20316;-68
2021/08/22 04:39:55;;;;;;;0.95;0.70;;;24.30;57.80;;;;;;6328028;28;20492;-67
2021/08/22 04:42:56;;;;;;;1.65;0.70;;;24.20;57.70;;;;;;6341027;28;20015;-67
2021/08/22 04:45:57;;;;;;;0.98;0.73;;;24.20;57.70;;;;;;6338416;28;20492;-67
2021/08/22 04:48:57;;;;;;;1.23;0.85;;;24.20;57.70;;;;;;6340883;28;20032;-67
2021/08/22 04:51:58;;;;;;;0.98;0.70;;;24.20;57.60;;;;;;6340866;28;20106;-68
2021/08/22 04:55:02;;;;;;;0.98;0.65;;;24.20;57.60;;;;;;6341028;28;20027;-67
2021/08/22 04:58:04;;;;;;;1.23;0.75;;;24.30;57.70;;;;;;6341329;28;20039;-67
2021/08/22 05:01:04;;;;;;;0.98;0.80;;;24.20;57.60;;;;;;6334507;28;20555;-67
2021/08/22 05:04:06;;;;;;;0.82;0.57;;;24.20;57.60;;;;;;6298005;28;20045;-67
2021/08/22 05:07:06;;;;;;;0.80;0.68;;;24.20;57.70;;;;;;6315744;28;20085;-67
2021/08/22 05:10:07;;;;;;;0.75;0.68;;;24.20;57.70;;;;;;6324027;28;20098;-68
2021/08/22 05:13:08;;;;;;;1.17;0.70;;;24.20;57.60;;;;;;6339735;27;20111;-68
2021/08/22 05:16:08;;;;;;;0.93;0.80;;;24.20;57.60;;;;;;6306517;28;20420;-67
2021/08/22 05:19:09;;;;;;;0.70;0.70;;;24.30;57.70;;;;;;6315450;28;20024;-67
2021/08/22 05:22:09;;;;;;;2.05;0.70;;;24.20;58.40;;;;;;6339592;28;20023;-68
2021/08/22 05:25:10;;;;;;;0.90;0.80;;;24.20;57.70;;;;;;6338773;28;20104;-68
2021/08/22 05:28:10;;;;;;;0.90;0.60;;;24.20;57.70;;;;;;6339045;28;20373;-68
2021/08/22 05:31:11;;;;;;;1.08;0.73;;;24.20;57.70;;;;;;6338792;28;20722;-67
2021/08/22 05:34:11;;;;;;;0.57;0.57;;;24.20;57.70;;;;;;6340626;28;20032;-68
2021/08/22 05:37:12;;;;;;;0.88;0.63;;;24.20;57.70;;;;;;6317458;28;20028;-67
2021/08/22 05:40:13;;;;;;;0.68;0.60;;;24.30;57.70;;;;;;6318463;28;20023;-68
2021/08/22 05:43:13;;;;;;;0.50;0.50;;;24.20;57.60;;;;;;6342928;28;20574;-67
2021/08/22 05:46:14;;;;;;;0.75;0.52;;;24.20;57.60;;;;;;6345276;28;20430;-68
2021/08/22 05:49:14;;;;;;;0.50;0.50;;;24.20;57.60;;;;;;6327443;28;20024;-68
2021/08/22 05:52:15;;;;;;;0.85;0.70;;;24.20;57.60;;;;;;6319724;28;20484;-67
2021/08/22 05:55:16;;;;;;;1.00;0.80;;;24.20;57.60;;;;;;6319835;28;20024;-68
2021/08/22 05:58:16;;;;;;;0.95;0.60;;;24.20;57.60;;;;;;6319343;28;20044;-68
2021/08/22 06:01:18;;;;;;;0.70;0.55;;;24.20;57.60;;;;;;6330903;28;20115;-67
2021/08/22 06:04:18;;;;;;;1.05;0.80;;;24.20;57.60;;;;;;6334609;28;20016;-68
2021/08/22 06:07:20;;;;;;;0.90;0.80;;;24.20;57.70;;;;;;6338591;28;20551;-68
2021/08/22 06:10:21;;;;;;;1.20;0.80;;;24.20;57.70;;;;;;6344646;28;20507;-67
2021/08/22 06:13:21;;;;;;;0.63;0.60;;;24.20;58.40;;;;;;6342606;28;20028;-67
2021/08/22 06:16:22;;;;;;;0.90;0.70;;;24.20;57.70;;;;;;6328746;28;20435;-68
2021/08/22 06:19:22;;;;;;;1.10;0.70;;;24.20;57.60;;;;;;6344838;28;20084;-68
2021/08/22 06:22:23;;;;;;;0.68;0.63;;;24.20;57.60;;;;;;6344472;28;20095;-69
2021/08/22 06:25:23;;;;;;;0.85;0.75;;;24.20;57.60;;;;;;6344740;28;20049;-67
2021/08/22 06:28:24;;;;;;;0.95;0.70;;;24.20;57.60;;;;;;6345257;28;20024;-66
2021/08/22 06:31:25;;;;;;;0.60;0.50;;;24.20;57.60;;;;;;6343007;28;20464;-66
2021/08/22 06:34:25;;;;;;;1.00;0.80;;;24.20;57.60;;;;;;6342580;28;20071;-67
2021/08/22 06:37:26;;;;;;;0.77;0.57;;;24.20;57.60;;;;;;6329545;28;20488;-67
2021/08/22 06:40:26;;;;;;;1.45;0.70;;;24.20;57.60;;;;;;6343568;28;20031;-68
2021/08/22 06:43:27;;;;;;;1.45;0.77;;;24.20;57.60;;;;;;6342902;28;20480;-67
2021/08/22 06:46:27;;;;;;;1.35;0.60;;;24.20;57.60;;;;;;6343667;28;20528;-67
2021/08/22 06:49:28;;;;;;;0.77;0.73;;;24.20;57.60;;;;;;6343824;28;20027;-66
2021/08/22 06:52:28;;;;;;;1.08;0.70;;;24.20;57.60;;;;;;6343827;28;20100;-67
2021/08/22 06:55:29;;;;;;;1.25;0.80;;;24.20;57.60;;;;;;6342432;28;20080;-68
2021/08/22 06:58:30;;;;;;;2.00;0.77;;;24.20;57.60;;;;;;6343388;28;20123;-67
2021/08/22 07:01:30;;;;;;;0.75;0.70;;;24.20;57.60;;;;;;6343449;28;20040;-67
2021/08/22 07:04:31;;;;;;;0.95;0.70;;;24.20;57.60;;;;;;6332946;28;20359;-67
2021/08/22 07:07:31;;;;;;;0.57;0.50;;;24.20;57.60;;;;;;6328134;28;20043;-67
2021/08/22 07:10:32;;;;;;;2.00;0.70;;;24.30;57.60;;;;;;6342217;28;20077;-66
2021/08/22 07:13:33;;;;;;;0.80;0.60;;;24.30;57.60;;;;;;6339833;28;20024;-67
2021/08/22 07:16:34;;;;;;;1.40;0.75;;;24.20;57.50;;;;;;6318120;28;20028;-68
2021/08/22 07:19:36;;;;;;;1.00;0.70;;;24.20;57.50;;;;;;6316649;28;20032;-67
2021/08/22 07:22:37;;;;;;;2.15;0.80;;;24.20;57.50;;;;;;6326087;28;20023;-67
2021/08/22 07:25:38;;;;;;;0.85;0.73;;;24.20;57.50;;;;;;6342364;28;20023;-67
2021/08/22 07:28:38;;;;;;;1.00;0.80;;;24.20;57.60;;;;;;6327208;28;20020;-67
2021/08/22 07:31:39;;;;;;;0.88;0.60;;;24.20;57.50;;;;;;6317833;28;20067;-66
2021/08/22 07:34:39;;;;;;;1.00;0.70;;;24.20;57.50;;;;;;6342142;28;20031;-66
2021/08/22 07:37:40;;;;;;;0.98;0.50;;;24.20;57.50;;;;;;6336731;28;20024;-68
2021/08/22 07:40:40;;;;;;;0.70;0.70;;;24.30;57.70;;;;;;6317628;28;20032;-67
2021/08/22 07:43:42;;;;;;;1.20;0.60;;;24.20;57.50;;;;;;6303220;28;20020;-68
2021/08/22 07:46:42;;;;;;;0.60;0.60;;;24.20;57.50;;;;;;6237649;28;20033;-67
2021/08/22 07:49:44;;;;;;;0.52;0.52;;;24.20;57.50;;;;;;6230526;28;20025;-68
2021/08/22 07:52:44;;;;;;;1.40;0.77;;;24.20;57.50;;;;;;6241074;28;20087;-68
2021/08/22 07:55:45;;;;;;;0.70;0.65;;;24.20;57.50;;;;;;6240176;28;20449;-67
2021/08/22 07:58:45;;;;;;;0.77;0.60;;;24.20;57.40;;;;;;6240907;28;20605;-67
2021/08/22 08:01:46;;;;;;;0.80;0.60;;;24.20;57.30;;;;;;6240981;28;20427;-67
2021/08/22 08:04:46;;;;;;;1.40;0.85;;;24.20;57.30;;;;;;6236201;28;20130;-67
2021/08/22 08:07:47;;;;;;;2.15;0.80;;;24.20;57.10;;;;;;6241142;28;20021;-67
2021/08/22 08:10:49;;;;;;;2.15;0.85;;;24.20;57.00;;;;;;6250872;28;20037;-67
2021/08/22 08:13:49;;;;;;;1.42;0.73;;;24.30;56.90;;;;;;6254391;28;20538;-67
2021/08/22 08:16:50;;;;;;;0.95;0.80;;;24.20;56.70;;;;;;6233969;28;20086;-67
2021/08/22 08:19:52;;;;;;;1.65;0.93;;;24.20;56.50;;;;;;6239714;28;20352;-67
2021/08/22 08:22:52;;;;;;;3.45;0.95;;;24.20;56.30;;;;;;6240604;28;20064;-67
2021/08/22 08:25:53;;;;;;;1.85;0.90;;;24.20;56.30;;;;;;6233225;28;20033;-67
2021/08/22 08:28:53;;;;;;;2.80;1.02;;;24.20;56.30;;;;;;6239476;28;20167;-67
2021/08/22 08:31:54;;;;;;;2.58;1.10;;;24.20;56.40;;;;;;6233269;28;20836;-67
2021/08/22 08:34:54;;;;;;;1.83;1.00;;;24.20;56.10;;;;;;6237579;28;20124;-67
2021/08/22 08:37:55;;;;;;;2.42;1.17;;;24.20;56.30;;;;;;6239804;28;20033;-67
2021/08/22 08:40:55;;;;;;;3.42;1.20;;;24.20;56.30;;;;;;6239652;28;20033;-68
2021/08/22 08:43:56;;;;;;;1.42;0.88;;;24.20;56.10;;;;;;6239603;28;20083;-68
2021/08/22 08:47:00;;;;;;;1.45;1.08;;;24.20;56.20;;;;;;6238227;28;20585;-67
2021/08/22 08:50:10;;;;;;;1.77;1.30;;;24.20;56.20;;;;;;6239498;28;20064;-68
2021/08/22 08:53:47;;;;;;;1.67;1.10;;;24.20;56.40;;;;;;6213974;28;20022;-68
2021/08/22 08:56:48;;;;;;;4.65;1.13;;;24.20;56.50;;;;;;6205865;28;20052;-67
2021/08/22 08:59:48;;;;;;;1.67;1.10;;;24.20;56.50;;;;;;6234173;28;20062;-67
2021/08/22 09:02:50;;;;;;;2.45;1.23;;;24.20;56.60;;;;;;6241054;28;20126;-68
2021/08/22 09:06:24;;;;;;;1.70;1.00;;;24.20;56.60;;;;;;6240826;28;20105;-68
2021/08/22 09:09:43;;;;;;;0.98;0.75;;;24.20;56.80;;;;;;6240555;28;20025;-68
2021/08/22 09:13:12;;;;;;;2.42;0.88;;;24.30;56.90;;;;;;6241239;28;20589;-67
2021/08/22 09:16:50;;;;;;;1.35;0.80;;;24.20;56.90;;;;;;6241285;28;20504;-68
2021/08/22 09:19:56;;;;;;;1.00;0.90;;;24.20;57.00;;;;;;6240918;28;20031;-69
2021/08/22 09:23:34;;;;;;;2.13;1.27;;;24.20;56.90;;;;;;6240719;28;20025;-68
2021/08/22 09:26:59;;;;;;;2.13;1.10;;;24.20;57.00;;;;;;6241194;28;20040;-67
2021/08/22 09:30:30;;;;;;;1.60;1.07;;;24.20;56.90;;;;;;6240523;28;20526;-69
2021/08/22 09:34:09;;;;;;;1.20;0.90;;;24.20;56.80;;;;;;6239909;28;20318;-68
2021/08/22 09:37:09;;;;;;;1.75;1.13;;;24.30;57.00;;;;;;6240783;28;20025;-67
2021/08/22 09:40:35;;;;;;;1.70;1.17;;;24.20;56.90;;;;;;6240944;28;20132;-68
2021/08/22 09:43:38;;;;;;;1.23;0.93;;;24.20;56.90;;;;;;6241172;28;20625;-68
2021/08/22 09:46:48;;;;;;;1.88;1.10;;;24.20;57.00;;;;;;6239148;28;20452;-69
2021/08/22 09:50:41;;;;;;;1.38;0.93;;;24.30;57.00;;;;;;6240377;28;20061;-68
2021/08/22 09:54:06;;;;;;;1.23;0.80;;;24.20;57.00;;;;;;6213447;28;20026;-67
2021/08/22 09:57:44;;;;;;;1.23;0.80;;;24.20;57.00;;;;;;6240568;28;20046;-67
2021/08/22 10:01:09;;;;;;;2.28;1.20;;;24.20;57.00;;;;;;6240252;28;20376;-69
2021/08/22 10:04:33;;;;;;;5.10;1.13;;;24.20;57.00;;;;;;6240991;28;20025;-68
2021/08/22 10:08:09;;;;;;;1.38;1.10;;;24.20;57.00;;;;;;6240349;28;20041;-68
2021/08/22 10:11:13;;;;;;;1.17;0.90;;;24.30;57.10;;;;;;6231638;28;20141;-68
2021/08/22 10:14:14;;;;;;;1.00;0.90;;;24.20;57.00;;;;;;6215753;28;20033;-68
2021/08/22 10:17:22;;;;;;;2.13;1.00;;;24.20;57.00;;;;;;6232113;28;20657;-67
2021/08/22 10:20:42;;;;;;;1.13;0.80;;;24.20;57.00;;;;;;6238653;28;20495;-68
2021/08/22 10:23:47;;;;;;;1.58;0.95;;;24.20;56.90;;;;;;6240090;28;20474;-68
2021/08/22 10:26:52;;;;;;;2.33;1.07;;;24.30;57.00;;;;;;6239977;28;20029;-67
2021/08/22 10:29:52;;;;;;;2.17;1.00;;;24.20;56.90;;;;;;6241892;28;20573;-68
2021/08/22 10:32:56;;;;;;;1.50;1.00;;;24.20;57.00;;;;;;6235838;28;20053;-68
2021/08/22 10:36:26;;;;;;;1.58;0.98;;;24.20;57.00;;;;;;6221983;28;20057;-69
2021/08/22 10:39:30;;;;;;;1.73;1.05;;;24.30;57.00;;;;;;6244728;28;20049;-68
2021/08/22 10:42:31;;;;;;;1.55;0.93;;;24.20;57.00;;;;;;6244523;28;20055;-68
2021/08/22 10:45:44;;;;;;;2.03;0.80;;;24.20;57.00;;;;;;6244338;28;20362;-67
2021/08/22 10:48:46;;;;;;;1.40;1.02;;;24.20;57.00;;;;;;6242825;28;20069;-68
2021/08/22 10:52:22;;;;;;;1.30;1.00;;;24.20;57.00;;;;;;6241647;28;20028;-68
2021/08/22 10:55:29;;;;;;;1.08;0.95;;;24.20;57.00;;;;;;6244223;28;20034;-67
2021/08/22 10:58:58;;;;;;;1.33;0.95;;;24.20;57.00;;;;;;6244217;28;20115;-68
2021/08/22 11:02:09;;;;;;;1.42;1.00;;;24.20;57.00;;;;;;6231250;28;20364;-70
2021/08/22 11:05:17;;;;;;;1.42;0.93;;;24.20;57.00;;;;;;6239426;28;20104;-68
2021/08/22 11:08:23;;;;;;;1.30;1.00;;;24.20;57.10;;;;;;6233125;28;20376;-69
2021/08/22 11:11:24;;;;;;;1.10;0.80;;;24.20;57.00;;;;;;6217501;28;20030;-68
2021/08/22 11:14:25;;;;;;;1.00;0.90;;;24.20;57.00;;;;;;6240849;28;20530;-67
2021/08/22 11:17:26;;;;;;;1.25;0.80;;;24.20;57.70;;;;;;6240628;28;20021;-67
2021/08/22 11:20:29;;;;;;;0.82;0.80;;;24.20;57.00;;;;;;6229699;28;20030;-67
2021/08/22 11:23:30;;;;;;;1.70;0.98;;;24.20;57.00;;;;;;6236103;28;20018;-67
2021/08/22 11:26:31;;;;;;;1.38;0.73;;;24.30;57.20;;;;;;6217758;28;20041;-68
2021/08/22 11:29:31;;;;;;;2.25;1.00;;;24.30;57.20;;;;;;6239149;28;20048;-68
2021/08/22 11:32:32;;;;;;;2.58;0.90;;;24.30;57.20;;;;;;6241478;28;20100;-68
2021/08/22 11:35:37;;;;;;;1.75;0.82;;;24.20;57.20;;;;;;6244960;28;20028;-67
2021/08/22 11:38:38;;;;;;;1.38;1.00;;;24.20;57.20;;;;;;6249618;28;20068;-67
2021/08/22 11:41:43;;;;;;;1.33;0.90;;;24.20;57.20;;;;;;6216674;28;20034;-68
2021/08/22 11:44:43;;;;;;;3.38;0.82;;;24.20;57.30;;;;;;6238232;28;20017;-68
2021/08/22 11:47:45;;;;;;;1.23;0.90;;;24.20;57.30;;;;;;6242018;28;20523;-67
2021/08/22 11:50:46;;;;;;;3.83;0.90;;;24.30;57.40;;;;;;6240088;28;20083;-68
2021/08/22 11:53:47;;;;;;;0.80;0.77;;;24.20;57.30;;;;;;6239507;28;20471;-68
2021/08/22 11:56:48;;;;;;;3.03;1.00;;;24.20;57.30;;;;;;6224990;28;20068;-68
2021/08/22 12:00:04;;;;;;;1.25;0.80;;;24.20;57.40;;;;;;6231734;28;20041;-67
2021/08/22 12:03:04;;;;;;;1.15;0.80;;;24.30;57.40;;;;;;6222133;28;20049;-68
2021/08/22 12:06:07;;;;;;;0.93;0.80;;;24.20;57.30;;;;;;6222527;28;20139;-68
2021/08/22 12:09:17;;;;;;;3.35;1.17;;;24.20;57.30;;;;;;6241261;28;20017;-68
2021/08/22 12:12:21;;;;;;;1.27;0.85;;;24.20;57.40;;;;;;6216427;28;20037;-68
2021/08/22 12:15:34;;;;;;;3.28;0.98;;;24.20;58.00;;;;;;6228850;28;20393;-68
2021/08/22 12:18:37;;;;;;;1.30;0.80;;;24.30;57.50;;;;;;6241634;28;20033;-68
2021/08/22 12:21:37;;;;;;;1.92;1.08;;;24.30;57.50;;;;;;6242357;28;20034;-65
2021/08/22 12:24:45;;;;;;;2.08;0.85;;;24.20;58.10;;;;;;6242861;28;20053;-67
2021/08/22 12:27:45;;;;;;;3.55;1.05;;;24.20;57.50;;;;;;6241467;28;20030;-67
2021/08/22 12:30:49;;;;;;;1.98;0.95;;;24.20;57.50;;;;;;6240211;28;20029;-67
2021/08/22 12:33:55;;;;;;;1.30;0.98;;;24.20;57.50;;;;;;6240402;28;20056;-67
2021/08/22 12:37:13;;;;;;;2.03;0.90;;;24.20;57.50;;;;;;6222262;28;20029;-67
2021/08/22 12:40:22;;;;;;;2.00;0.80;;;24.30;57.60;;;;;;6228716;28;20022;-66
2021/08/22 12:43:23;;;;;;;4.85;0.90;;;24.20;57.50;;;;;;6238999;28;20520;-67
2021/08/22 12:46:26;;;;;;;1.60;0.90;;;24.20;57.50;;;;;;6226634;28;20032;-67
2021/08/22 12:49:27;;;;;;;1.90;0.80;;;24.20;57.50;;;;;;6221940;28;20108;-67
2021/08/22 12:52:29;;;;;;;2.42;0.88;;;24.20;57.50;;;;;;6239104;28;20547;-66
2021/08/22 12:55:30;;;;;;;0.77;0.70;;;24.20;57.50;;;;;;6238727;28;20053;-67
2021/08/22 12:58:30;;;;;;;5.25;1.00;;;24.20;57.50;;;;;;6260138;28;20560;-66
2021/08/22 13:01:32;;;;;;;2.45;1.08;;;24.20;57.50;;;;;;6243058;28;20547;-67
2021/08/22 13:04:32;;;;;;;3.22;1.20;;;24.20;57.50;;;;;;6260831;28;20078;-67
2021/08/22 13:07:33;;;;;;;2.25;1.13;;;24.20;57.50;;;;;;6253217;28;20041;-68
2021/08/22 13:10:33;;;;;;;4.25;0.98;;;24.20;57.50;;;;;;6262235;28;20032;-64
2021/08/22 13:13:35;;;;;;;3.30;1.08;;;24.20;57.60;;;;;;6260096;28;20044;-65
2021/08/22 13:16:35;;;;;;;3.97;0.90;;;24.20;57.60;;;;;;6244510;28;20029;-70
2021/08/22 13:19:36;;;;;;;5.35;1.10;;;24.20;57.60;;;;;;6258938;28;20036;-67
2021/08/22 13:22:36;;;;;;;1.55;1.00;;;24.20;57.60;;;;;;6256631;28;20175;-69
2021/08/22 13:25:37;;;;;;;2.38;1.13;;;24.20;57.70;;;;;;6260949;28;20036;-69
2021/08/22 13:28:38;;;;;;;6.70;1.00;;;24.20;57.60;;;;;;6247526;28;20041;-69
2021/08/22 13:31:38;;;;;;;3.50;0.98;;;24.20;57.70;;;;;;6237217;28;20501;-69
2021/08/22 13:34:39;;;;;;;2.45;1.00;;;24.20;57.70;;;;;;6240089;28;20071;-68
2021/08/22 13:37:39;;;;;;;3.80;1.00;;;24.20;57.70;;;;;;6238998;28;20022;-68
2021/08/22 13:40:41;;;;;;;3.90;1.23;;;24.20;57.70;;;;;;6238052;28;20091;-68
2021/08/22 13:43:41;;;;;;;4.55;1.20;;;24.20;57.70;;;;;;6238038;28;20029;-69
2021/08/22 13:46:42;;;;;;;4.60;1.20;;;24.20;57.70;;;;;;6234319;28;20025;-69
2021/08/22 13:49:43;;;;;;;4.93;1.15;;;24.30;57.80;;;;;;6215863;28;20026;-69
2021/08/22 13:52:45;;;;;;;7.78;1.33;;;24.30;57.80;;;;;;6239037;28;20672;-69
2021/08/22 13:55:45;;;;;;;6.88;1.58;;;24.30;57.70;;;;;;6239313;28;20133;-68
2021/08/22 13:58:46;;;;;;;7.90;1.52;;;24.30;57.70;;;;;;6236854;28;20029;-70
2021/08/22 14:01:46;;;;;;;8.40;1.65;;;24.30;57.80;;;;;;6241046;28;20030;-70
2021/08/22 14:04:47;;;;;;;8.50;1.48;;;24.30;57.80;;;;;;6243359;28;20108;-67
2021/08/22 14:07:49;;;;;;;8.88;2.00;;;24.30;57.80;;;;;;6232801;28;20475;-69
2021/08/22 14:10:49;;;;;;;5.20;1.60;;;24.30;57.90;;;;;;6231114;28;20437;-69
2021/08/22 14:13:50;;;;;;;7.35;1.50;;;24.30;57.90;;;;;;6237879;28;20059;-69
2021/08/22 14:16:51;;;;;;;8.57;1.77;;;24.30;57.90;;;;;;6222676;28;20052;-67
2021/08/22 14:19:51;;;;;;;4.78;1.30;;;24.30;58.00;;;;;;6227212;28;20491;-69
2021/08/22 14:22:52;;;;;;;5.75;1.45;;;24.30;58.00;;;;;;6234006;28;20026;-67
2021/08/22 14:25:53;;;;;;;4.30;1.45;;;24.30;58.00;;;;;;6239754;28;20112;-69
2021/08/22 14:28:53;;;;;;;5.00;1.30;;;24.20;58.00;;;;;;6243099;28;20470;-69
2021/08/22 14:31:54;;;;;;;2.10;1.10;;;24.30;58.00;;;;;;6243275;28;20128;-69
2021/08/22 14:34:55;;;;;;;4.15;1.50;;;24.20;58.00;;;;;;6242952;28;20249;-69
2021/08/22 14:37:55;;;;;;;6.75;1.67;;;24.30;58.00;;;;;;6242937;28;20072;-68
2021/08/22 14:40:57;;;;;;;3.38;1.55;;;24.30;58.10;;;;;;6242048;28;20022;-69
2021/08/22 14:43:58;;;;;;;3.38;1.35;;;24.20;58.00;;;;;;6243202;28;20025;-68
2021/08/22 14:46:59;;;;;;;3.05;1.60;;;24.30;58.00;;;;;;6242336;28;20018;-67
2021/08/22 14:50:00;;;;;;;1.73;1.10;;;24.30;58.10;;;;;;6240391;28;20182;-68
2021/08/22 14:53:03;;;;;;;2.03;1.15;;;24.30;58.10;;;;;;6236406;28;20033;-69
2021/08/22 14:56:04;;;;;;;5.90;1.50;;;24.20;58.00;;;;;;6217788;28;20041;-67
2021/08/22 14:59:04;;;;;;;5.22;1.58;;;24.30;58.10;;;;;;6241592;28;20406;-67
2021/08/22 15:02:05;;;;;;;2.35;1.40;;;24.20;58.00;;;;;;6240772;28;20030;-69
2021/08/22 15:05:09;;;;;;;3.20;1.52;;;24.20;58.00;;;;;;6243670;28;20359;-70
2021/08/22 15:08:11;;;;;;;3.60;1.42;;;24.20;58.00;;;;;;6241679;28;20022;-66
2021/08/22 15:11:12;;;;;;;3.05;1.42;;;24.20;58.00;;;;;;6241587;28;20021;-66
2021/08/22 15:14:13;;;;;;;2.25;1.08;;;24.20;58.00;;;;;;6246807;28;20487;-68
2021/08/22 15:17:14;;;;;;;1.42;1.10;;;24.30;58.20;;;;;;6248413;28;20029;-69
2021/08/22 15:20:15;;;;;;;2.08;1.27;;;24.30;58.10;;;;;;6242126;28;20513;-68
2021/08/22 15:23:15;;;;;;;4.65;1.52;;;24.30;58.20;;;;;;6241069;28;20024;-68
2021/08/22 15:26:16;;;;;;;3.22;0.98;;;24.30;58.20;;;;;;6242067;28;20029;-66
2021/08/22 15:29:17;;;;;;;3.95;1.42;;;24.30;58.20;;;;;;6241920;28;20037;-69
2021/08/22 15:32:17;;;;;;;1.95;1.30;;;24.20;58.10;;;;;;6241679;28;20087;-69
2021/08/22 15:35:18;;;;;;;1.88;1.20;;;24.30;58.20;;;;;;6239943;28;20445;-69
2021/08/22 15:38:19;;;;;;;3.08;1.33;;;24.30;58.20;;;;;;6241296;28;20025;-69
2021/08/22 15:41:20;;;;;;;2.83;1.35;;;24.30;58.00;;;;;;6234281;28;20022;-70
2021/08/22 15:44:20;;;;;;;2.40;1.40;;;24.30;58.00;;;;;;6241150;28;20029;-67
2021/08/22 15:47:21;;;;;;;3.70;1.50;;;24.30;58.00;;;;;;6240976;28;20127;-68
2021/08/22 15:50:21;;;;;;;3.67;1.20;;;24.30;58.10;;;;;;6231791;28;20029;-70
2021/08/22 15:53:22;;;;;;;2.47;1.20;;;24.30;58.10;;;;;;6225099;28;20036;-69
2021/08/22 15:56:22;;;;;;;3.17;1.48;;;24.30;58.10;;;;;;6235320;28;20049;-70